createdAt,value
2023-01-20T00:07:21.365Z,1.5
2023-01-20T00:21:54.490Z,1.4
2023-01-20T00:36:27.980Z,1.4
2023-01-20T00:51:01.451Z,1.4
2023-01-20T01:05:34.213Z,1.5
2023-01-20T01:20:06.761Z,1.4
2023-01-20T01:34:40.273Z,1.5
2023-01-20T01:49:12.910Z,1.5
2023-01-20T02:03:43.884Z,1.5
2023-01-20T02:18:16.338Z,1.5
2023-01-20T02:32:49.035Z,1.4
2023-01-20T02:47:23.434Z,1.1
2023-01-20T03:01:56.368Z,1.2
2023-01-20T03:16:29.925Z,1.1
2023-01-20T03:31:01.865Z,1.3
2023-01-20T03:45:33.535Z,1.2
2023-01-20T04:00:06.252Z,1.2
2023-01-20T04:14:39.025Z,1.3
2023-01-20T04:29:13.267Z,1.3
2023-01-20T04:43:44.846Z,1.2
2023-01-20T04:58:17.143Z,1.1
2023-01-20T05:12:52.401Z,1.3
2023-01-20T05:27:25.443Z,1.2
2023-01-20T05:42:00.572Z,1.2
2023-01-20T05:56:31.639Z,1
2023-01-20T06:11:04.458Z,1.2
2023-01-20T06:25:37.480Z,0.9
2023-01-20T06:40:10.374Z,1.1
2023-01-20T06:54:42.447Z,1
2023-01-20T07:09:15.732Z,1
2023-01-20T07:23:46.312Z,0.9
2023-01-20T07:38:17.692Z,0.9
2023-01-20T07:52:49.934Z,1
2023-01-20T08:07:21.843Z,0.9
2023-01-20T08:21:54.596Z,0.9
2023-01-20T08:36:28.149Z,1.4
2023-01-20T08:50:58.950Z,1.4
2023-01-20T09:05:32.325Z,1.5
2023-01-20T09:20:05.587Z,1.5
2023-01-20T09:34:37.141Z,1.4
2023-01-20T09:49:09.358Z,1.6
2023-01-20T10:03:42.622Z,1.9
2023-01-20T10:18:17.702Z,2.1
2023-01-20T10:32:51.838Z,2.4
2023-01-20T10:47:23.393Z,2.5
2023-01-20T11:02:10.821Z,2.6
2023-01-20T11:16:36.880Z,2.2
2023-01-20T11:31:09.999Z,2.2
2023-01-20T11:45:42.203Z,1.9
2023-01-20T12:00:15.019Z,2.6
2023-01-20T12:14:48.520Z,2
2023-01-20T12:29:21.288Z,2
2023-01-20T12:43:53.102Z,1.8
2023-01-20T12:58:25.061Z,1.8
2023-01-20T13:12:57.826Z,1.6
2023-01-20T13:27:29.372Z,1.6
2023-01-20T13:42:02.025Z,1.6
2023-01-20T13:56:33.873Z,1.7
2023-01-20T14:11:07.753Z,1.3
2023-01-20T14:25:40.920Z,1.4
2023-01-20T14:40:12.906Z,1.3
2023-01-20T14:54:44.478Z,1.3
2023-01-20T15:09:16.585Z,1.5
2023-01-20T15:23:49.550Z,1.5
2023-01-20T15:38:22.289Z,1.4
2023-01-20T15:52:54.260Z,1.4
2023-01-20T16:07:28.869Z,1.3
2023-01-20T16:22:02.141Z,1.5
2023-01-20T16:36:34.709Z,1.5
2023-01-20T16:51:07.440Z,1.2
2023-01-20T17:05:40.324Z,0.9
2023-01-20T17:20:11.346Z,0.2
2023-01-20T17:34:42.561Z,0.1
2023-01-20T17:49:15.282Z,-0.3
2023-01-20T18:03:48.474Z,-0.2
2023-01-20T18:18:21.415Z,-0.1
2023-01-20T18:32:53.420Z,-0.3
2023-01-20T18:47:25.865Z,-0.3
2023-01-20T19:01:56.495Z,-0.2
2023-01-20T19:16:29.958Z,-0.1
2023-01-20T19:31:02.793Z,-0.4
2023-01-20T19:45:45.273Z,-0.5
2023-01-20T20:00:55.254Z,12.9
2023-01-20T20:43:06.416Z,0
2023-01-20T20:43:24.383Z,0
2023-01-20T20:43:40.635Z,0
2023-01-20T20:45:32.935Z,0
2023-01-20T20:46:00.584Z,22.5
2023-01-20T20:46:47.441Z,23.1
2023-01-20T20:48:10.689Z,22.6
2023-01-20T20:48:40.599Z,22.4
2023-01-20T20:49:56.686Z,24.8
2023-01-20T20:50:30.179Z,25.6
2023-01-20T21:16:08.046Z,23.9
2023-01-20T21:16:35.945Z,24.2
2023-01-20T21:17:02.472Z,23.7
2023-01-20T21:19:34.445Z,22.6
2023-01-20T21:37:54.323Z,21.2
2023-01-20T21:57:03.080Z,18
2023-01-20T22:15:03.001Z,0.4
2023-01-20T22:34:09.033Z,-1.1
2023-01-20T22:53:20.547Z,-1.3
2023-01-20T23:12:33.807Z,-1.5
2023-01-20T23:31:43.956Z,-2.1
2023-01-20T23:51:00.015Z,-1.9
